sensor_id;sensor_type;location;lat;lon;timestamp;P1;durP1;ratioP1;P2;durP2;ratioP2
28180;SDS011;15464;50.988;10.318;2023-08-17T00:02:11;18.35;;;1.77;;
28180;SDS011;15464;50.988;10.318;2023-08-17T00:04:39;1.30;;;0.90;;
28180;SDS011;15464;50.988;10.318;2023-08-17T00:07:06;2.03;;;0.90;;
28180;SDS011;15464;50.988;10.318;2023-08-17T00:09:33;3.00;;;1.10;;
28180;SDS011;15464;50.988;10.318;2023-08-17T00:11:59;1.65;;;1.00;;
28180;SDS011;15464;50.988;10.318;2023-08-17T00:14:26;2.42;;;1.20;;
28180;SDS011;15464;50.988;10.318;2023-08-17T00:16:53;1.45;;;0.95;;
28180;SDS011;15464;50.988;10.318;2023-08-17T00:19:19;1.95;;;1.00;;
28180;SDS011;15464;50.988;10.318;2023-08-17T00:21:46;1.88;;;1.08;;
28180;SDS011;15464;50.988;10.318;2023-08-17T00:24:13;3.30;;;1.15;;
28180;SDS011;15464;50.988;10.318;2023-08-17T00:26:40;3.10;;;1.70;;
28180;SDS011;15464;50.988;10.318;2023-08-17T00:29:06;2.97;;;1.27;;
28180;SDS011;15464;50.988;10.318;2023-08-17T00:31:33;3.90;;;1.38;;
28180;SDS011;15464;50.988;10.318;2023-08-17T00:34:00;3.78;;;1.30;;
28180;SDS011;15464;50.988;10.318;2023-08-17T00:36:27;2.50;;;1.23;;
28180;SDS011;15464;50.988;10.318;2023-08-17T00:38:53;2.75;;;1.45;;
28180;SDS011;15464;50.988;10.318;2023-08-17T00:41:20;4.57;;;1.50;;
28180;SDS011;15464;50.988;10.318;2023-08-17T00:43:47;4.95;;;1.50;;
28180;SDS011;15464;50.988;10.318;2023-08-17T00:46:13;1.95;;;1.10;;
28180;SDS011;15464;50.988;10.318;2023-08-17T00:48:40;1.55;;;1.05;;
28180;SDS011;15464;50.988;10.318;2023-08-17T00:51:09;4.07;;;1.27;;
28180;SDS011;15464;50.988;10.318;2023-08-17T00:53:36;1.20;;;0.90;;
28180;SDS011;15464;50.988;10.318;2023-08-17T00:56:02;1.13;;;0.90;;
28180;SDS011;15464;50.988;10.318;2023-08-17T00:58:29;3.83;;;1.30;;
28180;SDS011;15464;50.988;10.318;2023-08-17T01:00:58;5.13;;;1.30;;
28180;SDS011;15464;50.988;10.318;2023-08-17T01:03:24;4.30;;;1.20;;
28180;SDS011;15464;50.988;10.318;2023-08-17T01:05:56;2.78;;;1.00;;
28180;SDS011;15464;50.988;10.318;2023-08-17T01:08:24;2.55;;;1.25;;
28180;SDS011;15464;50.988;10.318;2023-08-17T01:16:29;4.10;;;1.17;;
28180;SDS011;15464;50.988;10.318;2023-08-17T01:18:59;2.38;;;1.30;;
28180;SDS011;15464;50.988;10.318;2023-08-17T01:21:35;3.60;;;1.40;;
28180;SDS011;15464;50.988;10.318;2023-08-17T01:24:07;3.30;;;1.50;;
28180;SDS011;15464;50.988;10.318;2023-08-17T01:26:34;1.92;;;1.20;;
28180;SDS011;15464;50.988;10.318;2023-08-17T01:29:01;2.10;;;1.45;;
28180;SDS011;15464;50.988;10.318;2023-08-17T01:31:28;8.80;;;2.00;;
28180;SDS011;15464;50.988;10.318;2023-08-17T01:34:04;3.33;;;1.70;;
28180;SDS011;15464;50.988;10.318;2023-08-17T01:36:39;3.90;;;1.30;;
28180;SDS011;15464;50.988;10.318;2023-08-17T01:39:13;1.60;;;1.20;;
28180;SDS011;15464;50.988;10.318;2023-08-17T01:41:43;1.70;;;1.20;;
28180;SDS011;15464;50.988;10.318;2023-08-17T01:44:13;3.30;;;1.10;;
28180;SDS011;15464;50.988;10.318;2023-08-17T01:46:40;3.92;;;1.30;;
28180;SDS011;15464;50.988;10.318;2023-08-17T01:49:08;3.40;;;1.33;;
28180;SDS011;15464;50.988;10.318;2023-08-17T01:51:35;3.47;;;1.40;;
28180;SDS011;15464;50.988;10.318;2023-08-17T01:54:01;1.27;;;1.00;;
28180;SDS011;15464;50.988;10.318;2023-08-17T01:56:28;3.95;;;1.50;;
28180;SDS011;15464;50.988;10.318;2023-08-17T01:58:55;2.08;;;1.40;;
28180;SDS011;15464;50.988;10.318;2023-08-17T02:01:21;2.28;;;1.35;;
28180;SDS011;15464;50.988;10.318;2023-08-17T02:03:48;2.17;;;1.20;;
28180;SDS011;15464;50.988;10.318;2023-08-17T02:06:15;3.28;;;1.35;;
28180;SDS011;15464;50.988;10.318;2023-08-17T02:08:44;1.83;;;1.20;;
28180;SDS011;15464;50.988;10.318;2023-08-17T02:11:12;2.17;;;1.63;;
28180;SDS011;15464;50.988;10.318;2023-08-17T02:13:39;3.28;;;1.30;;
28180;SDS011;15464;50.988;10.318;2023-08-17T02:16:07;4.93;;;1.65;;
28180;SDS011;15464;50.988;10.318;2023-08-17T02:21:02;5.18;;;2.92;;
28180;SDS011;15464;50.988;10.318;2023-08-17T02:23:29;5.38;;;2.00;;
28180;SDS011;15464;50.988;10.318;2023-08-17T02:25:56;5.93;;;2.30;;
28180;SDS011;15464;50.988;10.318;2023-08-17T02:28:22;6.55;;;2.33;;
28180;SDS011;15464;50.988;10.318;2023-08-17T02:30:54;3.47;;;2.22;;
28180;SDS011;15464;50.988;10.318;2023-08-17T02:33:22;2.30;;;1.98;;
28180;SDS011;15464;50.988;10.318;2023-08-17T02:35:49;4.00;;;1.77;;
28180;SDS011;15464;50.988;10.318;2023-08-17T02:38:15;2.97;;;1.83;;
28180;SDS011;15464;50.988;10.318;2023-08-17T02:40:42;6.35;;;2.58;;
28180;SDS011;15464;50.988;10.318;2023-08-17T02:43:09;3.22;;;1.70;;
28180;SDS011;15464;50.988;10.318;2023-08-17T02:45:36;3.90;;;1.83;;
28180;SDS011;15464;50.988;10.318;2023-08-17T02:48:02;3.78;;;2.10;;
28180;SDS011;15464;50.988;10.318;2023-08-17T02:50:30;3.17;;;2.10;;
28180;SDS011;15464;50.988;10.318;2023-08-17T02:52:56;3.08;;;2.05;;
28180;SDS011;15464;50.988;10.318;2023-08-17T02:55:23;6.00;;;2.50;;
28180;SDS011;15464;50.988;10.318;2023-08-17T02:57:50;5.03;;;2.60;;
28180;SDS011;15464;50.988;10.318;2023-08-17T03:00:16;2.58;;;2.38;;
28180;SDS011;15464;50.988;10.318;2023-08-17T03:02:43;3.03;;;2.20;;
28180;SDS011;15464;50.988;10.318;2023-08-17T03:05:10;8.63;;;3.05;;
28180;SDS011;15464;50.988;10.318;2023-08-17T03:07:37;6.78;;;3.38;;
28180;SDS011;15464;50.988;10.318;2023-08-17T03:10:04;5.13;;;3.22;;
28180;SDS011;15464;50.988;10.318;2023-08-17T03:12:31;5.13;;;2.75;;
28180;SDS011;15464;50.988;10.318;2023-08-17T03:14:57;5.18;;;3.30;;
28180;SDS011;15464;50.988;10.318;2023-08-17T03:17:24;6.28;;;5.63;;
28180;SDS011;15464;50.988;10.318;2023-08-17T03:19:52;7.95;;;4.63;;
28180;SDS011;15464;50.988;10.318;2023-08-17T03:22:19;10.15;;;5.05;;
28180;SDS011;15464;50.988;10.318;2023-08-17T03:24:45;5.00;;;3.63;;
28180;SDS011;15464;50.988;10.318;2023-08-17T03:27:12;7.63;;;4.63;;
28180;SDS011;15464;50.988;10.318;2023-08-17T03:29:39;5.78;;;4.72;;
28180;SDS011;15464;50.988;10.318;2023-08-17T03:32:06;4.10;;;3.70;;
28180;SDS011;15464;50.988;10.318;2023-08-17T03:34:33;3.70;;;2.92;;
28180;SDS011;15464;50.988;10.318;2023-08-17T03:37:00;2.80;;;2.60;;
28180;SDS011;15464;50.988;10.318;2023-08-17T03:39:26;3.30;;;2.70;;
28180;SDS011;15464;50.988;10.318;2023-08-17T03:41:53;5.07;;;2.80;;
28180;SDS011;15464;50.988;10.318;2023-08-17T03:44:20;2.45;;;2.25;;
28180;SDS011;15464;50.988;10.318;2023-08-17T03:46:47;2.95;;;1.98;;
28180;SDS011;15464;50.988;10.318;2023-08-17T03:49:13;4.32;;;2.78;;
28180;SDS011;15464;50.988;10.318;2023-08-17T03:51:40;3.20;;;2.80;;
28180;SDS011;15464;50.988;10.318;2023-08-17T03:54:07;5.35;;;3.40;;
28180;SDS011;15464;50.988;10.318;2023-08-17T03:56:34;3.90;;;2.90;;
28180;SDS011;15464;50.988;10.318;2023-08-17T03:59:01;3.45;;;2.65;;
28180;SDS011;15464;50.988;10.318;2023-08-17T04:01:27;5.75;;;3.63;;
28180;SDS011;15464;50.988;10.318;2023-08-17T04:03:54;5.05;;;2.75;;
28180;SDS011;15464;50.988;10.318;2023-08-17T04:06:21;4.90;;;2.70;;
28180;SDS011;15464;50.988;10.318;2023-08-17T04:08:48;3.58;;;2.88;;
28180;SDS011;15464;50.988;10.318;2023-08-17T04:11:15;4.55;;;3.95;;
28180;SDS011;15464;50.988;10.318;2023-08-17T04:13:41;4.72;;;3.70;;
28180;SDS011;15464;50.988;10.318;2023-08-17T04:16:08;5.03;;;3.67;;
28180;SDS011;15464;50.988;10.318;2023-08-17T04:18:35;7.00;;;4.50;;
28180;SDS011;15464;50.988;10.318;2023-08-17T04:21:02;6.80;;;4.57;;
28180;SDS011;15464;50.988;10.318;2023-08-17T04:23:29;5.10;;;4.60;;
28180;SDS011;15464;50.988;10.318;2023-08-17T04:25:55;5.50;;;4.93;;
28180;SDS011;15464;50.988;10.318;2023-08-17T04:28:22;6.28;;;4.38;;
28180;SDS011;15464;50.988;10.318;2023-08-17T04:30:49;7.47;;;4.70;;
28180;SDS011;15464;50.988;10.318;2023-08-17T04:33:16;11.07;;;5.80;;
28180;SDS011;15464;50.988;10.318;2023-08-17T04:35:45;7.95;;;7.15;;
28180;SDS011;15464;50.988;10.318;2023-08-17T04:38:13;9.05;;;7.80;;
28180;SDS011;15464;50.988;10.318;2023-08-17T04:40:40;9.55;;;8.57;;
28180;SDS011;15464;50.988;10.318;2023-08-17T04:43:09;9.20;;;7.88;;
28180;SDS011;15464;50.988;10.318;2023-08-17T04:45:36;8.75;;;6.35;;
28180;SDS011;15464;50.988;10.318;2023-08-17T04:48:03;7.20;;;6.50;;
28180;SDS011;15464;50.988;10.318;2023-08-17T04:50:32;8.37;;;7.20;;
28180;SDS011;15464;50.988;10.318;2023-08-17T04:52:58;8.60;;;6.45;;
28180;SDS011;15464;50.988;10.318;2023-08-17T04:55:25;6.93;;;6.22;;
28180;SDS011;15464;50.988;10.318;2023-08-17T04:57:52;7.10;;;6.40;;
28180;SDS011;15464;50.988;10.318;2023-08-17T05:00:18;9.02;;;6.30;;
28180;SDS011;15464;50.988;10.318;2023-08-17T05:02:51;6.80;;;5.80;;
28180;SDS011;15464;50.988;10.318;2023-08-17T05:05:18;10.25;;;7.68;;
28180;SDS011;15464;50.988;10.318;2023-08-17T05:07:45;8.63;;;7.78;;
28180;SDS011;15464;50.988;10.318;2023-08-17T05:10:12;14.52;;;10.70;;
28180;SDS011;15464;50.988;10.318;2023-08-17T05:12:39;9.60;;;8.80;;
28180;SDS011;15464;50.988;10.318;2023-08-17T05:15:06;12.00;;;9.75;;
28180;SDS011;15464;50.988;10.318;2023-08-17T05:17:36;11.95;;;10.73;;
28180;SDS011;15464;50.988;10.318;2023-08-17T05:20:03;10.18;;;9.18;;
28180;SDS011;15464;50.988;10.318;2023-08-17T05:22:31;10.50;;;9.40;;
28180;SDS011;15464;50.988;10.318;2023-08-17T05:24:57;10.85;;;9.95;;
28180;SDS011;15464;50.988;10.318;2023-08-17T05:27:24;9.82;;;8.93;;
28180;SDS011;15464;50.988;10.318;2023-08-17T05:29:51;9.50;;;8.60;;
28180;SDS011;15464;50.988;10.318;2023-08-17T05:32:18;11.35;;;8.60;;
28180;SDS011;15464;50.988;10.318;2023-08-17T05:34:46;8.20;;;7.40;;
28180;SDS011;15464;50.988;10.318;2023-08-17T05:37:13;9.40;;;6.80;;
28180;SDS011;15464;50.988;10.318;2023-08-17T05:39:41;7.72;;;6.55;;
28180;SDS011;15464;50.988;10.318;2023-08-17T05:42:08;10.18;;;6.60;;
28180;SDS011;15464;50.988;10.318;2023-08-17T05:44:36;6.53;;;5.97;;
28180;SDS011;15464;50.988;10.318;2023-08-17T05:47:03;10.45;;;7.50;;
28180;SDS011;15464;50.988;10.318;2023-08-17T05:49:30;10.65;;;7.05;;
28180;SDS011;15464;50.988;10.318;2023-08-17T05:51:57;9.55;;;6.55;;
28180;SDS011;15464;50.988;10.318;2023-08-17T05:54:24;7.35;;;5.85;;
28180;SDS011;15464;50.988;10.318;2023-08-17T05:56:50;6.20;;;5.60;;
28180;SDS011;15464;50.988;10.318;2023-08-17T05:59:17;7.30;;;6.22;;
28180;SDS011;15464;50.988;10.318;2023-08-17T06:01:44;6.40;;;5.80;;
28180;SDS011;15464;50.988;10.318;2023-08-17T06:04:11;8.38;;;5.50;;
28180;SDS011;15464;50.988;10.318;2023-08-17T06:06:38;5.80;;;4.90;;
28180;SDS011;15464;50.988;10.318;2023-08-17T06:09:05;7.72;;;5.47;;
28180;SDS011;15464;50.988;10.318;2023-08-17T06:11:34;7.65;;;6.13;;
28180;SDS011;15464;50.988;10.318;2023-08-17T06:14:00;5.95;;;5.15;;
28180;SDS011;15464;50.988;10.318;2023-08-17T06:16:27;8.73;;;5.43;;
28180;SDS011;15464;50.988;10.318;2023-08-17T06:18:54;7.13;;;5.30;;
28180;SDS011;15464;50.988;10.318;2023-08-17T06:21:20;7.00;;;5.13;;
28180;SDS011;15464;50.988;10.318;2023-08-17T06:23:47;6.03;;;5.07;;
28180;SDS011;15464;50.988;10.318;2023-08-17T06:26:14;5.32;;;4.82;;
28180;SDS011;15464;50.988;10.318;2023-08-17T06:28:40;4.78;;;3.70;;
28180;SDS011;15464;50.988;10.318;2023-08-17T06:31:07;6.07;;;3.85;;
28180;SDS011;15464;50.988;10.318;2023-08-17T06:33:34;5.80;;;4.55;;
28180;SDS011;15464;50.988;10.318;2023-08-17T06:36:01;3.60;;;3.30;;
28180;SDS011;15464;50.988;10.318;2023-08-17T06:38:28;3.83;;;3.22;;
28180;SDS011;15464;50.988;10.318;2023-08-17T06:40:55;4.28;;;3.30;;
28180;SDS011;15464;50.988;10.318;2023-08-17T06:43:21;2.78;;;2.55;;
28180;SDS011;15464;50.988;10.318;2023-08-17T06:45:48;2.97;;;2.78;;
28180;SDS011;15464;50.988;10.318;2023-08-17T06:48:15;4.53;;;2.70;;
28180;SDS011;15464;50.988;10.318;2023-08-17T06:50:41;3.22;;;2.97;;
28180;SDS011;15464;50.988;10.318;2023-08-17T06:53:08;2.95;;;2.65;;
28180;SDS011;15464;50.988;10.318;2023-08-17T06:55:35;3.00;;;2.80;;
28180;SDS011;15464;50.988;10.318;2023-08-17T06:58:02;3.75;;;3.40;;
28180;SDS011;15464;50.988;10.318;2023-08-17T07:00:29;3.53;;;3.03;;
28180;SDS011;15464;50.988;10.318;2023-08-17T07:02:55;3.70;;;3.40;;
28180;SDS011;15464;50.988;10.318;2023-08-17T07:05:26;3.90;;;3.60;;
28180;SDS011;15464;50.988;10.318;2023-08-17T07:07:53;4.78;;;4.32;;
28180;SDS011;15464;50.988;10.318;2023-08-17T07:10:19;4.65;;;3.45;;
28180;SDS011;15464;50.988;10.318;2023-08-17T07:12:46;5.93;;;3.85;;
28180;SDS011;15464;50.988;10.318;2023-08-17T07:15:13;4.05;;;3.20;;
28180;SDS011;15464;50.988;10.318;2023-08-17T07:17:39;4.10;;;3.70;;
28180;SDS011;15464;50.988;10.318;2023-08-17T07:20:06;5.03;;;3.70;;
28180;SDS011;15464;50.988;10.318;2023-08-17T07:22:37;3.22;;;3.00;;
28180;SDS011;15464;50.988;10.318;2023-08-17T07:25:04;4.10;;;3.70;;
28180;SDS011;15464;50.988;10.318;2023-08-17T07:27:31;4.35;;;3.60;;
28180;SDS011;15464;50.988;10.318;2023-08-17T07:29:57;3.22;;;2.92;;
28180;SDS011;15464;50.988;10.318;2023-08-17T07:32:24;3.13;;;2.83;;
28180;SDS011;15464;50.988;10.318;2023-08-17T07:34:52;3.17;;;2.90;;
28180;SDS011;15464;50.988;10.318;2023-08-17T07:37:19;3.95;;;3.55;;
28180;SDS011;15464;50.988;10.318;2023-08-17T07:39:46;8.57;;;4.05;;
28180;SDS011;15464;50.988;10.318;2023-08-17T07:42:13;7.45;;;4.18;;
28180;SDS011;15464;50.988;10.318;2023-08-17T07:44:40;3.92;;;3.58;;
28180;SDS011;15464;50.988;10.318;2023-08-17T07:47:07;3.53;;;3.22;;
28180;SDS011;15464;50.988;10.318;2023-08-17T07:49:33;3.47;;;3.17;;
28180;SDS011;15464;50.988;10.318;2023-08-17T07:52:00;3.38;;;3.08;;
28180;SDS011;15464;50.988;10.318;2023-08-17T07:54:26;3.47;;;2.70;;
28180;SDS011;15464;50.988;10.318;2023-08-17T07:56:54;5.15;;;3.30;;
28180;SDS011;15464;50.988;10.318;2023-08-17T07:59:20;2.95;;;2.65;;
28180;SDS011;15464;50.988;10.318;2023-08-17T08:01:47;2.88;;;2.42;;
28180;SDS011;15464;50.988;10.318;2023-08-17T08:04:14;3.33;;;3.03;;
28180;SDS011;15464;50.988;10.318;2023-08-17T08:06:40;4.18;;;3.03;;
28180;SDS011;15464;50.988;10.318;2023-08-17T08:09:07;2.90;;;2.70;;
28180;SDS011;15464;50.988;10.318;2023-08-17T08:11:34;2.50;;;2.25;;
28180;SDS011;15464;50.988;10.318;2023-08-17T08:14:00;3.35;;;2.63;;
28180;SDS011;15464;50.988;10.318;2023-08-17T08:16:27;3.30;;;3.00;;
28180;SDS011;15464;50.988;10.318;2023-08-17T08:18:57;2.75;;;2.55;;
28180;SDS011;15464;50.988;10.318;2023-08-17T08:21:24;2.67;;;2.47;;
28180;SDS011;15464;50.988;10.318;2023-08-17T08:23:50;3.30;;;2.03;;
28180;SDS011;15464;50.988;10.318;2023-08-17T08:26:17;2.60;;;2.40;;
28180;SDS011;15464;50.988;10.318;2023-08-17T08:28:43;3.03;;;2.72;;
28180;SDS011;15464;50.988;10.318;2023-08-17T08:31:10;4.78;;;3.00;;
28180;SDS011;15464;50.988;10.318;2023-08-17T08:33:37;2.30;;;2.10;;
28180;SDS011;15464;50.988;10.318;2023-08-17T08:36:04;3.08;;;2.88;;
28180;SDS011;15464;50.988;10.318;2023-08-17T08:38:32;4.47;;;2.97;;
28180;SDS011;15464;50.988;10.318;2023-08-17T08:40:59;4.68;;;3.00;;
28180;SDS011;15464;50.988;10.318;2023-08-17T08:43:27;5.32;;;3.30;;
28180;SDS011;15464;50.988;10.318;2023-08-17T08:45:53;2.75;;;2.55;;
28180;SDS011;15464;50.988;10.318;2023-08-17T08:48:21;2.88;;;2.67;;
28180;SDS011;15464;50.988;10.318;2023-08-17T08:50:49;2.30;;;2.10;;
28180;SDS011;15464;50.988;10.318;2023-08-17T08:53:17;4.28;;;2.80;;
28180;SDS011;15464;50.988;10.318;2023-08-17T08:55:55;2.95;;;2.65;;
28180;SDS011;15464;50.988;10.318;2023-08-17T08:58:25;3.00;;;2.75;;
28180;SDS011;15464;50.988;10.318;2023-08-17T09:00:52;2.95;;;2.72;;
28180;SDS011;15464;50.988;10.318;2023-08-17T09:03:20;3.40;;;2.30;;
28180;SDS011;15464;50.988;10.318;2023-08-17T09:05:48;2.85;;;2.60;;
28180;SDS011;15464;50.988;10.318;2023-08-17T09:08:21;3.88;;;2.67;;
28180;SDS011;15464;50.988;10.318;2023-08-17T09:10:49;4.10;;;2.30;;
28180;SDS011;15464;50.988;10.318;2023-08-17T09:13:16;4.50;;;2.78;;
28180;SDS011;15464;50.988;10.318;2023-08-17T09:15:43;2.90;;;2.60;;
28180;SDS011;15464;50.988;10.318;2023-08-17T09:18:09;4.00;;;2.58;;
28180;SDS011;15464;50.988;10.318;2023-08-17T09:20:43;3.25;;;2.53;;
28180;SDS011;15464;50.988;10.318;2023-08-17T09:23:15;2.33;;;2.05;;
28180;SDS011;15464;50.988;10.318;2023-08-17T09:25:46;3.03;;;2.40;;
28180;SDS011;15464;50.988;10.318;2023-08-17T09:28:14;2.33;;;2.13;;
28180;SDS011;15464;50.988;10.318;2023-08-17T09:30:58;3.53;;;2.17;;
28180;SDS011;15464;50.988;10.318;2023-08-17T09:33:28;2.45;;;2.20;;
28180;SDS011;15464;50.988;10.318;2023-08-17T09:35:57;3.90;;;2.30;;
28180;SDS011;15464;50.988;10.318;2023-08-17T09:40:52;3.78;;;2.30;;
28180;SDS011;15464;50.988;10.318;2023-08-17T09:43:20;2.75;;;2.30;;
28180;SDS011;15464;50.988;10.318;2023-08-17T09:45:47;3.30;;;2.42;;
28180;SDS011;15464;50.988;10.318;2023-08-17T09:48:16;2.70;;;2.50;;
28180;SDS011;15464;50.988;10.318;2023-08-17T09:50:44;2.40;;;2.20;;
28180;SDS011;15464;50.988;10.318;2023-08-17T09:53:21;2.67;;;2.47;;
28180;SDS011;15464;50.988;10.318;2023-08-17T09:55:48;2.75;;;2.55;;
28180;SDS011;15464;50.988;10.318;2023-08-17T09:58:14;3.95;;;2.38;;
28180;SDS011;15464;50.988;10.318;2023-08-17T10:00:45;3.35;;;2.60;;
28180;SDS011;15464;50.988;10.318;2023-08-17T10:03:18;3.17;;;2.60;;
28180;SDS011;15464;50.988;10.318;2023-08-17T10:05:55;4.47;;;2.72;;
28180;SDS011;15464;50.988;10.318;2023-08-17T10:08:25;3.13;;;2.60;;
28180;SDS011;15464;50.988;10.318;2023-08-17T10:10:56;2.63;;;2.40;;
28180;SDS011;15464;50.988;10.318;2023-08-17T10:13:28;2.58;;;2.28;;
28180;SDS011;15464;50.988;10.318;2023-08-17T10:18:59;3.55;;;3.10;;
28180;SDS011;15464;50.988;10.318;2023-08-17T10:24:08;3.22;;;2.97;;
28180;SDS011;15464;50.988;10.318;2023-08-17T10:26:35;4.47;;;2.65;;
28180;SDS011;15464;50.988;10.318;2023-08-17T10:29:03;4.22;;;2.63;;
28180;SDS011;15464;50.988;10.318;2023-08-17T10:31:37;3.25;;;2.95;;
28180;SDS011;15464;50.988;10.318;2023-08-17T10:34:04;3.08;;;2.83;;
28180;SDS011;15464;50.988;10.318;2023-08-17T10:36:32;3.10;;;2.80;;
28180;SDS011;15464;50.988;10.318;2023-08-17T10:41:53;3.25;;;3.05;;
28180;SDS011;15464;50.988;10.318;2023-08-17T10:47:29;3.35;;;3.05;;
28180;SDS011;15464;50.988;10.318;2023-08-17T10:50:23;4.22;;;3.28;;
28180;SDS011;15464;50.988;10.318;2023-08-17T10:55:41;3.63;;;3.20;;
28180;SDS011;15464;50.988;10.318;2023-08-17T10:58:07;3.45;;;3.17;;
28180;SDS011;15464;50.988;10.318;2023-08-17T11:00:40;3.38;;;3.08;;
28180;SDS011;15464;50.988;10.318;2023-08-17T11:03:18;3.28;;;2.97;;
28180;SDS011;15464;50.988;10.318;2023-08-17T11:05:47;3.78;;;3.30;;
28180;SDS011;15464;50.988;10.318;2023-08-17T11:08:50;3.42;;;3.13;;
28180;SDS011;15464;50.988;10.318;2023-08-17T11:11:22;4.53;;;3.88;;
28180;SDS011;15464;50.988;10.318;2023-08-17T11:13:50;4.57;;;4.13;;
28180;SDS011;15464;50.988;10.318;2023-08-17T11:16:22;5.28;;;4.38;;
28180;SDS011;15464;50.988;10.318;2023-08-17T11:18:50;5.93;;;4.68;;
28180;SDS011;15464;50.988;10.318;2023-08-17T11:21:17;4.88;;;4.45;;
28180;SDS011;15464;50.988;10.318;2023-08-17T11:23:45;4.55;;;4.15;;
28180;SDS011;15464;50.988;10.318;2023-08-17T11:26:15;4.50;;;4.13;;
28180;SDS011;15464;50.988;10.318;2023-08-17T11:28:43;4.72;;;4.32;;
28180;SDS011;15464;50.988;10.318;2023-08-17T11:31:12;4.90;;;4.50;;
28180;SDS011;15464;50.988;10.318;2023-08-17T11:33:42;4.78;;;4.30;;
28180;SDS011;15464;50.988;10.318;2023-08-17T11:36:09;4.47;;;4.18;;
28180;SDS011;15464;50.988;10.318;2023-08-17T11:38:37;4.57;;;4.00;;
28180;SDS011;15464;50.988;10.318;2023-08-17T11:41:05;5.28;;;4.60;;
28180;SDS011;15464;50.988;10.318;2023-08-17T11:43:37;5.00;;;4.60;;
28180;SDS011;15464;50.988;10.318;2023-08-17T11:46:04;5.60;;;4.95;;
28180;SDS011;15464;50.988;10.318;2023-08-17T11:48:32;4.30;;;3.90;;
28180;SDS011;15464;50.988;10.318;2023-08-17T11:51:01;4.30;;;3.90;;
28180;SDS011;15464;50.988;10.318;2023-08-17T11:53:35;4.90;;;4.50;;
28180;SDS011;15464;50.988;10.318;2023-08-17T11:56:05;4.80;;;4.40;;
28180;SDS011;15464;50.988;10.318;2023-08-17T11:58:36;4.72;;;4.20;;
28180;SDS011;15464;50.988;10.318;2023-08-17T12:01:03;5.00;;;4.60;;
28180;SDS011;15464;50.988;10.318;2023-08-17T12:03:36;5.32;;;4.82;;
28180;SDS011;15464;50.988;10.318;2023-08-17T12:06:04;5.60;;;5.10;;
28180;SDS011;15464;50.988;10.318;2023-08-17T12:08:31;5.43;;;4.78;;
28180;SDS011;15464;50.988;10.318;2023-08-17T12:10:58;4.82;;;4.40;;
28180;SDS011;15464;50.988;10.318;2023-08-17T12:13:32;4.82;;;4.43;;
28180;SDS011;15464;50.988;10.318;2023-08-17T12:16:03;5.43;;;4.95;;
28180;SDS011;15464;50.988;10.318;2023-08-17T12:18:33;5.68;;;5.03;;
28180;SDS011;15464;50.988;10.318;2023-08-17T12:21:00;5.43;;;4.60;;
28180;SDS011;15464;50.988;10.318;2023-08-17T12:23:27;5.13;;;4.72;;
28180;SDS011;15464;50.988;10.318;2023-08-17T12:25:55;4.50;;;4.18;;
28180;SDS011;15464;50.988;10.318;2023-08-17T12:28:25;5.72;;;5.00;;
28180;SDS011;15464;50.988;10.318;2023-08-17T12:30:58;4.80;;;4.40;;
28180;SDS011;15464;50.988;10.318;2023-08-17T12:33:26;5.00;;;4.70;;
28180;SDS011;15464;50.988;10.318;2023-08-17T12:35:53;6.60;;;5.15;;
28180;SDS011;15464;50.988;10.318;2023-08-17T12:38:20;5.28;;;4.68;;
28180;SDS011;15464;50.988;10.318;2023-08-17T12:40:46;5.50;;;5.00;;
28180;SDS011;15464;50.988;10.318;2023-08-17T12:43:13;4.88;;;4.47;;
28180;SDS011;15464;50.988;10.318;2023-08-17T12:45:41;6.00;;;5.32;;
28180;SDS011;15464;50.988;10.318;2023-08-17T12:48:07;5.30;;;4.65;;
28180;SDS011;15464;50.988;10.318;2023-08-17T12:50:34;5.25;;;4.70;;
28180;SDS011;15464;50.988;10.318;2023-08-17T12:53:01;4.95;;;4.55;;
28180;SDS011;15464;50.988;10.318;2023-08-17T12:55:28;5.57;;;5.00;;
28180;SDS011;15464;50.988;10.318;2023-08-17T12:57:54;5.60;;;4.63;;
28180;SDS011;15464;50.988;10.318;2023-08-17T13:00:27;6.50;;;5.10;;
28180;SDS011;15464;50.988;10.318;2023-08-17T13:02:54;4.88;;;4.47;;
28180;SDS011;15464;50.988;10.318;2023-08-17T13:05:21;6.75;;;4.80;;
28180;SDS011;15464;50.988;10.318;2023-08-17T13:07:47;6.05;;;5.10;;
28180;SDS011;15464;50.988;10.318;2023-08-17T13:10:14;4.47;;;4.07;;
28180;SDS011;15464;50.988;10.318;2023-08-17T13:12:41;4.32;;;3.92;;
28180;SDS011;15464;50.988;10.318;2023-08-17T13:15:07;4.28;;;3.97;;
28180;SDS011;15464;50.988;10.318;2023-08-17T13:17:34;4.50;;;4.10;;
28180;SDS011;15464;50.988;10.318;2023-08-17T13:20:01;4.53;;;4.10;;
28180;SDS011;15464;50.988;10.318;2023-08-17T13:22:30;5.30;;;4.15;;
28180;SDS011;15464;50.988;10.318;2023-08-17T13:24:56;4.72;;;3.75;;
28180;SDS011;15464;50.988;10.318;2023-08-17T13:27:23;4.20;;;3.83;;
28180;SDS011;15464;50.988;10.318;2023-08-17T13:29:50;4.15;;;3.65;;
28180;SDS011;15464;50.988;10.318;2023-08-17T13:32:16;5.05;;;3.88;;
28180;SDS011;15464;50.988;10.318;2023-08-17T13:34:43;4.40;;;4.00;;
28180;SDS011;15464;50.988;10.318;2023-08-17T13:37:09;4.00;;;3.60;;
28180;SDS011;15464;50.988;10.318;2023-08-17T13:39:36;4.95;;;3.83;;
28180;SDS011;15464;50.988;10.318;2023-08-17T13:42:03;3.72;;;3.42;;
28180;SDS011;15464;50.988;10.318;2023-08-17T13:44:30;3.78;;;3.42;;
28180;SDS011;15464;50.988;10.318;2023-08-17T13:46:56;4.00;;;3.63;;
28180;SDS011;15464;50.988;10.318;2023-08-17T13:49:23;4.90;;;3.72;;
28180;SDS011;15464;50.988;10.318;2023-08-17T13:51:50;4.35;;;3.97;;
28180;SDS011;15464;50.988;10.318;2023-08-17T13:54:17;4.22;;;3.50;;
28180;SDS011;15464;50.988;10.318;2023-08-17T13:56:44;3.67;;;3.40;;
28180;SDS011;15464;50.988;10.318;2023-08-17T13:59:10;3.70;;;3.40;;
28180;SDS011;15464;50.988;10.318;2023-08-17T14:01:37;3.92;;;3.20;;
28180;SDS011;15464;50.988;10.318;2023-08-17T14:04:04;3.63;;;3.33;;
28180;SDS011;15464;50.988;10.318;2023-08-17T14:06:37;5.82;;;3.35;;
28180;SDS011;15464;50.988;10.318;2023-08-17T14:09:05;5.72;;;3.53;;
28180;SDS011;15464;50.988;10.318;2023-08-17T14:11:31;3.17;;;2.97;;
28180;SDS011;15464;50.988;10.318;2023-08-17T14:13:58;3.42;;;3.10;;
28180;SDS011;15464;50.988;10.318;2023-08-17T14:16:25;4.20;;;2.83;;
28180;SDS011;15464;50.988;10.318;2023-08-17T14:18:52;2.78;;;2.58;;
28180;SDS011;15464;50.988;10.318;2023-08-17T14:21:19;2.88;;;2.60;;
28180;SDS011;15464;50.988;10.318;2023-08-17T14:23:45;3.50;;;2.50;;
28180;SDS011;15464;50.988;10.318;2023-08-17T14:26:13;3.30;;;3.00;;
28180;SDS011;15464;50.988;10.318;2023-08-17T14:28:39;3.40;;;2.80;;
28180;SDS011;15464;50.988;10.318;2023-08-17T14:31:09;2.53;;;2.33;;
28180;SDS011;15464;50.988;10.318;2023-08-17T14:33:42;3.00;;;2.80;;
28180;SDS011;15464;50.988;10.318;2023-08-17T14:36:08;3.10;;;2.60;;
28180;SDS011;15464;50.988;10.318;2023-08-17T14:38:35;3.10;;;2.80;;
28180;SDS011;15464;50.988;10.318;2023-08-17T14:41:02;5.32;;;2.97;;
28180;SDS011;15464;50.988;10.318;2023-08-17T14:43:30;3.50;;;3.00;;
28180;SDS011;15464;50.988;10.318;2023-08-17T14:45:57;3.30;;;2.83;;
28180;SDS011;15464;50.988;10.318;2023-08-17T14:48:24;3.13;;;2.83;;
28180;SDS011;15464;50.988;10.318;2023-08-17T14:50:52;3.35;;;2.78;;
28180;SDS011;15464;50.988;10.318;2023-08-17T14:53:18;2.88;;;2.67;;
28180;SDS011;15464;50.988;10.318;2023-08-17T14:55:45;3.45;;;3.03;;
28180;SDS011;15464;50.988;10.318;2023-08-17T14:58:15;4.22;;;2.83;;
28180;SDS011;15464;50.988;10.318;2023-08-17T15:00:42;3.10;;;2.80;;
28180;SDS011;15464;50.988;10.318;2023-08-17T15:03:09;5.55;;;3.20;;